sensor_id;sensor_type;location;lat;lon;timestamp;P1;durP1;ratioP1;P2;durP2;ratioP2
61017;SDS011;48171;51.550;5.434;2023-04-01T00:00:23;10.20;;;2.58;;
61017;SDS011;48171;51.550;5.434;2023-04-01T00:02:49;6.68;;;2.20;;
61017;SDS011;48171;51.550;5.434;2023-04-01T00:05:14;9.75;;;2.53;;
61017;SDS011;48171;51.550;5.434;2023-04-01T00:07:41;7.85;;;2.22;;
61017;SDS011;48171;51.550;5.434;2023-04-01T00:10:07;5.88;;;2.22;;
61017;SDS011;48171;51.550;5.434;2023-04-01T00:12:35;6.32;;;2.38;;
61017;SDS011;48171;51.550;5.434;2023-04-01T00:15:01;10.15;;;2.40;;
61017;SDS011;48171;51.550;5.434;2023-04-01T00:17:27;7.65;;;2.90;;
61017;SDS011;48171;51.550;5.434;2023-04-01T00:19:54;10.75;;;2.88;;
61017;SDS011;48171;51.550;5.434;2023-04-01T00:22:20;7.82;;;2.63;;
61017;SDS011;48171;51.550;5.434;2023-04-01T00:24:47;8.05;;;2.75;;
61017;SDS011;48171;51.550;5.434;2023-04-01T00:27:12;8.70;;;2.70;;
61017;SDS011;48171;51.550;5.434;2023-04-01T00:29:37;7.88;;;2.65;;
61017;SDS011;48171;51.550;5.434;2023-04-01T00:32:02;8.20;;;3.03;;
61017;SDS011;48171;51.550;5.434;2023-04-01T00:34:28;8.15;;;3.10;;
61017;SDS011;48171;51.550;5.434;2023-04-01T00:36:53;6.90;;;2.83;;
61017;SDS011;48171;51.550;5.434;2023-04-01T00:39:19;8.27;;;2.83;;
61017;SDS011;48171;51.550;5.434;2023-04-01T00:41:45;9.88;;;3.35;;
61017;SDS011;48171;51.550;5.434;2023-04-01T00:44:14;8.55;;;2.70;;
61017;SDS011;48171;51.550;5.434;2023-04-01T00:46:47;7.72;;;3.08;;
61017;SDS011;48171;51.550;5.434;2023-04-01T00:49:13;6.57;;;3.05;;
61017;SDS011;48171;51.550;5.434;2023-04-01T00:51:41;11.20;;;3.97;;
61017;SDS011;48171;51.550;5.434;2023-04-01T00:54:08;8.73;;;3.45;;
61017;SDS011;48171;51.550;5.434;2023-04-01T00:56:37;9.32;;;3.63;;
61017;SDS011;48171;51.550;5.434;2023-04-01T00:59:07;8.30;;;3.90;;
61017;SDS011;48171;51.550;5.434;2023-04-01T01:01:38;7.78;;;3.47;;
61017;SDS011;48171;51.550;5.434;2023-04-01T01:04:03;9.77;;;3.83;;
61017;SDS011;48171;51.550;5.434;2023-04-01T01:09:26;8.35;;;4.00;;
61017;SDS011;48171;51.550;5.434;2023-04-01T01:17:20;10.70;;;4.30;;
61017;SDS011;48171;51.550;5.434;2023-04-01T01:22:42;9.95;;;4.63;;
61017;SDS011;48171;51.550;5.434;2023-04-01T01:27:57;10.70;;;4.90;;
61017;SDS011;48171;51.550;5.434;2023-04-01T01:38:38;11.63;;;5.38;;
61017;SDS011;48171;51.550;5.434;2023-04-01T01:41:05;16.00;;;5.97;;
61017;SDS011;48171;51.550;5.434;2023-04-01T01:43:35;13.55;;;6.00;;
61017;SDS011;48171;51.550;5.434;2023-04-01T01:46:11;13.27;;;6.22;;
61017;SDS011;48171;51.550;5.434;2023-04-01T01:48:39;16.98;;;6.82;;
61017;SDS011;48171;51.550;5.434;2023-04-01T01:51:07;16.88;;;7.53;;
61017;SDS011;48171;51.550;5.434;2023-04-01T01:53:33;17.67;;;8.18;;
61017;SDS011;48171;51.550;5.434;2023-04-01T01:55:59;19.67;;;8.60;;
61017;SDS011;48171;51.550;5.434;2023-04-01T02:01:06;17.25;;;7.78;;
61017;SDS011;48171;51.550;5.434;2023-04-01T02:03:36;13.38;;;6.90;;
61017;SDS011;48171;51.550;5.434;2023-04-01T02:06:06;17.88;;;8.05;;
61017;SDS011;48171;51.550;5.434;2023-04-01T02:08:41;15.27;;;7.03;;
61017;SDS011;48171;51.550;5.434;2023-04-01T02:11:34;15.73;;;6.90;;
61017;SDS011;48171;51.550;5.434;2023-04-01T02:14:15;13.23;;;6.32;;
61017;SDS011;48171;51.550;5.434;2023-04-01T02:16:53;12.68;;;6.25;;
61017;SDS011;48171;51.550;5.434;2023-04-01T02:19:24;15.82;;;6.70;;
61017;SDS011;48171;51.550;5.434;2023-04-01T02:21:55;14.43;;;6.70;;
61017;SDS011;48171;51.550;5.434;2023-04-01T02:24:24;15.47;;;6.73;;
61017;SDS011;48171;51.550;5.434;2023-04-01T02:26:54;17.30;;;7.53;;
61017;SDS011;48171;51.550;5.434;2023-04-01T02:29:20;15.70;;;6.90;;
61017;SDS011;48171;51.550;5.434;2023-04-01T02:31:47;16.83;;;6.85;;
61017;SDS011;48171;51.550;5.434;2023-04-01T02:34:14;19.58;;;8.30;;
61017;SDS011;48171;51.550;5.434;2023-04-01T02:36:40;20.70;;;8.55;;
61017;SDS011;48171;51.550;5.434;2023-04-01T02:39:05;22.35;;;8.88;;
61017;SDS011;48171;51.550;5.434;2023-04-01T02:41:34;23.33;;;9.40;;
61017;SDS011;48171;51.550;5.434;2023-04-01T02:44:03;22.00;;;8.68;;
61017;SDS011;48171;51.550;5.434;2023-04-01T02:46:29;21.75;;;8.82;;
61017;SDS011;48171;51.550;5.434;2023-04-01T02:48:54;20.98;;;8.60;;
61017;SDS011;48171;51.550;5.434;2023-04-01T02:51:20;23.05;;;8.73;;
61017;SDS011;48171;51.550;5.434;2023-04-01T02:53:45;21.35;;;8.10;;
61017;SDS011;48171;51.550;5.434;2023-04-01T02:56:10;20.50;;;8.30;;
61017;SDS011;48171;51.550;5.434;2023-04-01T02:58:35;22.67;;;8.93;;
61017;SDS011;48171;51.550;5.434;2023-04-01T03:01:01;25.35;;;9.98;;
61017;SDS011;48171;51.550;5.434;2023-04-01T03:03:26;21.85;;;9.57;;
61017;SDS011;48171;51.550;5.434;2023-04-01T03:05:51;24.15;;;8.40;;
61017;SDS011;48171;51.550;5.434;2023-04-01T03:08:20;23.83;;;9.93;;
61017;SDS011;48171;51.550;5.434;2023-04-01T03:10:45;24.67;;;9.68;;
61017;SDS011;48171;51.550;5.434;2023-04-01T03:13:10;28.00;;;9.70;;
61017;SDS011;48171;51.550;5.434;2023-04-01T03:15:36;26.08;;;10.38;;
61017;SDS011;48171;51.550;5.434;2023-04-01T03:18:01;21.73;;;8.95;;
61017;SDS011;48171;51.550;5.434;2023-04-01T03:20:27;21.60;;;9.63;;
61017;SDS011;48171;51.550;5.434;2023-04-01T03:22:53;24.38;;;10.10;;
61017;SDS011;48171;51.550;5.434;2023-04-01T03:25:18;22.05;;;9.25;;
61017;SDS011;48171;51.550;5.434;2023-04-01T03:27:44;25.27;;;9.43;;
61017;SDS011;48171;51.550;5.434;2023-04-01T03:30:09;23.55;;;9.25;;
61017;SDS011;48171;51.550;5.434;2023-04-01T03:32:35;18.23;;;8.13;;
61017;SDS011;48171;51.550;5.434;2023-04-01T03:35:00;19.20;;;8.15;;
61017;SDS011;48171;51.550;5.434;2023-04-01T03:37:25;21.50;;;8.52;;
61017;SDS011;48171;51.550;5.434;2023-04-01T03:39:51;20.33;;;8.90;;
61017;SDS011;48171;51.550;5.434;2023-04-01T03:42:17;19.58;;;7.57;;
61017;SDS011;48171;51.550;5.434;2023-04-01T03:44:42;18.27;;;7.40;;
61017;SDS011;48171;51.550;5.434;2023-04-01T03:47:07;20.45;;;8.73;;
61017;SDS011;48171;51.550;5.434;2023-04-01T03:49:34;14.88;;;6.93;;
61017;SDS011;48171;51.550;5.434;2023-04-01T03:51:59;15.85;;;7.43;;
61017;SDS011;48171;51.550;5.434;2023-04-01T03:54:24;17.17;;;7.32;;
61017;SDS011;48171;51.550;5.434;2023-04-01T03:56:50;16.23;;;6.22;;
61017;SDS011;48171;51.550;5.434;2023-04-01T03:59:15;15.02;;;5.88;;
61017;SDS011;48171;51.550;5.434;2023-04-01T04:01:40;13.02;;;5.88;;
61017;SDS011;48171;51.550;5.434;2023-04-01T04:04:06;14.10;;;5.70;;
61017;SDS011;48171;51.550;5.434;2023-04-01T04:06:32;12.35;;;5.45;;
61017;SDS011;48171;51.550;5.434;2023-04-01T04:08:58;12.85;;;5.78;;
61017;SDS011;48171;51.550;5.434;2023-04-01T04:11:23;13.05;;;5.75;;
61017;SDS011;48171;51.550;5.434;2023-04-01T04:13:48;14.90;;;5.85;;
61017;SDS011;48171;51.550;5.434;2023-04-01T04:16:14;14.60;;;5.70;;
61017;SDS011;48171;51.550;5.434;2023-04-01T04:18:40;12.15;;;5.20;;
61017;SDS011;48171;51.550;5.434;2023-04-01T04:21:05;11.13;;;5.05;;
61017;SDS011;48171;51.550;5.434;2023-04-01T04:23:31;11.13;;;5.18;;
61017;SDS011;48171;51.550;5.434;2023-04-01T04:26:05;12.75;;;5.65;;
61017;SDS011;48171;51.550;5.434;2023-04-01T04:28:32;12.55;;;4.93;;
61017;SDS011;48171;51.550;5.434;2023-04-01T04:30:58;11.68;;;5.45;;
61017;SDS011;48171;51.550;5.434;2023-04-01T04:33:24;11.20;;;5.40;;
61017;SDS011;48171;51.550;5.434;2023-04-01T04:35:50;13.38;;;5.55;;
61017;SDS011;48171;51.550;5.434;2023-04-01T04:38:16;10.73;;;5.22;;
61017;SDS011;48171;51.550;5.434;2023-04-01T04:40:42;11.57;;;5.20;;
61017;SDS011;48171;51.550;5.434;2023-04-01T04:43:11;12.32;;;5.85;;
61017;SDS011;48171;51.550;5.434;2023-04-01T04:45:38;10.77;;;5.03;;
61017;SDS011;48171;51.550;5.434;2023-04-01T04:48:04;10.90;;;5.30;;
61017;SDS011;48171;51.550;5.434;2023-04-01T04:50:30;11.77;;;5.15;;
61017;SDS011;48171;51.550;5.434;2023-04-01T04:52:55;11.93;;;5.22;;
61017;SDS011;48171;51.550;5.434;2023-04-01T04:55:21;8.55;;;4.28;;
61017;SDS011;48171;51.550;5.434;2023-04-01T04:57:46;11.80;;;4.78;;
61017;SDS011;48171;51.550;5.434;2023-04-01T05:00:12;9.45;;;4.13;;
61017;SDS011;48171;51.550;5.434;2023-04-01T05:02:37;10.15;;;4.47;;
61017;SDS011;48171;51.550;5.434;2023-04-01T05:05:03;9.45;;;4.05;;
61017;SDS011;48171;51.550;5.434;2023-04-01T05:07:29;10.50;;;4.75;;
61017;SDS011;48171;51.550;5.434;2023-04-01T05:09:54;11.15;;;4.97;;
61017;SDS011;48171;51.550;5.434;2023-04-01T05:12:19;10.13;;;4.55;;
61017;SDS011;48171;51.550;5.434;2023-04-01T05:14:45;10.48;;;3.92;;
61017;SDS011;48171;51.550;5.434;2023-04-01T05:17:10;9.13;;;4.38;;
61017;SDS011;48171;51.550;5.434;2023-04-01T05:19:36;9.55;;;4.10;;
61017;SDS011;48171;51.550;5.434;2023-04-01T05:22:02;9.48;;;4.03;;
61017;SDS011;48171;51.550;5.434;2023-04-01T05:24:27;9.77;;;4.57;;
61017;SDS011;48171;51.550;5.434;2023-04-01T05:26:53;10.30;;;4.22;;
61017;SDS011;48171;51.550;5.434;2023-04-01T05:29:18;10.30;;;4.03;;
61017;SDS011;48171;51.550;5.434;2023-04-01T05:31:43;8.80;;;4.22;;
61017;SDS011;48171;51.550;5.434;2023-04-01T05:34:09;7.97;;;3.67;;
61017;SDS011;48171;51.550;5.434;2023-04-01T05:36:35;9.70;;;4.03;;
61017;SDS011;48171;51.550;5.434;2023-04-01T05:39:00;11.10;;;4.18;;
61017;SDS011;48171;51.550;5.434;2023-04-01T05:41:26;10.02;;;4.28;;
61017;SDS011;48171;51.550;5.434;2023-04-01T05:43:51;9.18;;;3.63;;
61017;SDS011;48171;51.550;5.434;2023-04-01T05:46:17;12.13;;;4.20;;
61017;SDS011;48171;51.550;5.434;2023-04-01T05:48:42;8.55;;;3.65;;
61017;SDS011;48171;51.550;5.434;2023-04-01T05:51:11;8.68;;;4.03;;
61017;SDS011;48171;51.550;5.434;2023-04-01T05:53:38;10.32;;;4.10;;
61017;SDS011;48171;51.550;5.434;2023-04-01T05:56:03;10.43;;;4.30;;
61017;SDS011;48171;51.550;5.434;2023-04-01T05:58:29;10.18;;;4.28;;
61017;SDS011;48171;51.550;5.434;2023-04-01T06:01:01;14.48;;;5.00;;
61017;SDS011;48171;51.550;5.434;2023-04-01T06:03:37;14.77;;;5.55;;
61017;SDS011;48171;51.550;5.434;2023-04-01T06:06:02;13.93;;;5.35;;
61017;SDS011;48171;51.550;5.434;2023-04-01T06:08:29;14.75;;;6.18;;
61017;SDS011;48171;51.550;5.434;2023-04-01T06:11:15;15.68;;;6.53;;
61017;SDS011;48171;51.550;5.434;2023-04-01T06:14:22;14.85;;;6.22;;
61017;SDS011;48171;51.550;5.434;2023-04-01T06:25:42;17.75;;;6.32;;
61017;SDS011;48171;51.550;5.434;2023-04-01T06:34:12;16.88;;;7.18;;
61017;SDS011;48171;51.550;5.434;2023-04-01T06:39:22;15.35;;;6.70;;
61017;SDS011;48171;51.550;5.434;2023-04-01T06:42:11;16.20;;;7.35;;
61017;SDS011;48171;51.550;5.434;2023-04-01T06:47:46;20.67;;;8.38;;
61017;SDS011;48171;51.550;5.434;2023-04-01T06:55:36;23.45;;;9.73;;
61017;SDS011;48171;51.550;5.434;2023-04-01T06:58:11;23.98;;;9.77;;
61017;SDS011;48171;51.550;5.434;2023-04-01T07:00:44;25.92;;;10.73;;
61017;SDS011;48171;51.550;5.434;2023-04-01T07:03:19;24.60;;;9.90;;
61017;SDS011;48171;51.550;5.434;2023-04-01T07:05:48;25.02;;;9.98;;
61017;SDS011;48171;51.550;5.434;2023-04-01T07:08:16;29.98;;;11.68;;
61017;SDS011;48171;51.550;5.434;2023-04-01T07:10:47;29.00;;;11.52;;
61017;SDS011;48171;51.550;5.434;2023-04-01T07:19:01;32.45;;;12.15;;
61017;SDS011;48171;51.550;5.434;2023-04-01T07:21:41;33.60;;;11.48;;
61017;SDS011;48171;51.550;5.434;2023-04-01T07:24:21;27.50;;;11.40;;
61017;SDS011;48171;51.550;5.434;2023-04-01T07:26:52;30.27;;;12.43;;
61017;SDS011;48171;51.550;5.434;2023-04-01T07:29:20;28.83;;;11.07;;
61017;SDS011;48171;51.550;5.434;2023-04-01T07:34:26;31.75;;;12.70;;
61017;SDS011;48171;51.550;5.434;2023-04-01T07:36:54;28.75;;;12.48;;
61017;SDS011;48171;51.550;5.434;2023-04-01T07:39:35;29.55;;;11.25;;
61017;SDS011;48171;51.550;5.434;2023-04-01T07:42:08;31.80;;;12.15;;
61017;SDS011;48171;51.550;5.434;2023-04-01T07:53:12;32.88;;;12.68;;
61017;SDS011;48171;51.550;5.434;2023-04-01T08:04:18;29.90;;;11.30;;
61017;SDS011;48171;51.550;5.434;2023-04-01T08:06:50;35.70;;;12.45;;
61017;SDS011;48171;51.550;5.434;2023-04-01T08:09:40;39.47;;;13.18;;
61017;SDS011;48171;51.550;5.434;2023-04-01T08:15:14;26.50;;;11.15;;
61017;SDS011;48171;51.550;5.434;2023-04-01T08:18:01;29.58;;;12.07;;
61017;SDS011;48171;51.550;5.434;2023-04-01T08:23:26;30.80;;;11.88;;
61017;SDS011;48171;51.550;5.434;2023-04-01T08:25:55;31.08;;;12.25;;
61017;SDS011;48171;51.550;5.434;2023-04-01T08:28:29;28.77;;;12.00;;
61017;SDS011;48171;51.550;5.434;2023-04-01T08:31:02;32.00;;;12.18;;
61017;SDS011;48171;51.550;5.434;2023-04-01T08:33:31;30.08;;;12.07;;
61017;SDS011;48171;51.550;5.434;2023-04-01T08:36:05;31.88;;;12.98;;
61017;SDS011;48171;51.550;5.434;2023-04-01T08:38:44;32.88;;;13.00;;
61017;SDS011;48171;51.550;5.434;2023-04-01T08:44:20;27.38;;;12.48;;
61017;SDS011;48171;51.550;5.434;2023-04-01T08:47:32;34.80;;;12.68;;
61017;SDS011;48171;51.550;5.434;2023-04-01T08:50:01;30.20;;;12.25;;
61017;SDS011;48171;51.550;5.434;2023-04-01T08:55:27;28.98;;;12.38;;
61017;SDS011;48171;51.550;5.434;2023-04-01T09:00:57;28.40;;;12.77;;
61017;SDS011;48171;51.550;5.434;2023-04-01T09:06:52;32.90;;;12.70;;
61017;SDS011;48171;51.550;5.434;2023-04-01T09:20:39;24.33;;;10.98;;
61017;SDS011;48171;51.550;5.434;2023-04-01T09:23:25;27.23;;;10.93;;
61017;SDS011;48171;51.550;5.434;2023-04-01T09:34:20;20.73;;;9.63;;
61017;SDS011;48171;51.550;5.434;2023-04-01T09:37:36;22.55;;;9.32;;
61017;SDS011;48171;51.550;5.434;2023-04-01T09:40:08;17.30;;;8.50;;
61017;SDS011;48171;51.550;5.434;2023-04-01T09:42:55;19.48;;;8.27;;
61017;SDS011;48171;51.550;5.434;2023-04-01T09:45:51;16.27;;;8.57;;
61017;SDS011;48171;51.550;5.434;2023-04-01T10:01:43;18.45;;;8.93;;
61017;SDS011;48171;51.550;5.434;2023-04-01T10:09:48;18.88;;;9.45;;
61017;SDS011;48171;51.550;5.434;2023-04-01T10:15:32;23.08;;;9.57;;
61017;SDS011;48171;51.550;5.434;2023-04-01T10:18:26;16.20;;;9.20;;
61017;SDS011;48171;51.550;5.434;2023-04-01T10:24:25;22.00;;;10.55;;
61017;SDS011;48171;51.550;5.434;2023-04-01T10:27:33;21.13;;;10.60;;
61017;SDS011;48171;51.550;5.434;2023-04-01T10:30:19;19.08;;;10.73;;
61017;SDS011;48171;51.550;5.434;2023-04-01T10:35:55;21.95;;;11.77;;
61017;SDS011;48171;51.550;5.434;2023-04-01T10:47:12;19.88;;;12.20;;
61017;SDS011;48171;51.550;5.434;2023-04-01T10:50:17;20.45;;;10.82;;
61017;SDS011;48171;51.550;5.434;2023-04-01T10:58:16;20.60;;;11.07;;
61017;SDS011;48171;51.550;5.434;2023-04-01T11:01:19;21.10;;;11.43;;
61017;SDS011;48171;51.550;5.434;2023-04-01T11:12:32;22.23;;;12.02;;
61017;SDS011;48171;51.550;5.434;2023-04-01T11:18:31;24.85;;;12.50;;
61017;SDS011;48171;51.550;5.434;2023-04-01T11:21:35;24.02;;;11.82;;
61017;SDS011;48171;51.550;5.434;2023-04-01T11:27:16;26.20;;;12.52;;
61017;SDS011;48171;51.550;5.434;2023-04-01T11:33:02;30.13;;;13.15;;
61017;SDS011;48171;51.550;5.434;2023-04-01T11:38:35;27.33;;;13.20;;
61017;SDS011;48171;51.550;5.434;2023-04-01T11:41:22;28.77;;;13.07;;
61017;SDS011;48171;51.550;5.434;2023-04-01T11:44:15;25.38;;;12.60;;
61017;SDS011;48171;51.550;5.434;2023-04-01T11:52:25;22.60;;;10.95;;
61017;SDS011;48171;51.550;5.434;2023-04-01T12:00:44;25.25;;;11.73;;
61017;SDS011;48171;51.550;5.434;2023-04-01T12:06:30;23.40;;;10.82;;
61017;SDS011;48171;51.550;5.434;2023-04-01T12:09:21;21.88;;;10.90;;
61017;SDS011;48171;51.550;5.434;2023-04-01T12:14:45;18.02;;;10.27;;
61017;SDS011;48171;51.550;5.434;2023-04-01T12:17:37;22.88;;;10.20;;
61017;SDS011;48171;51.550;5.434;2023-04-01T12:36:33;20.02;;;11.15;;
61017;SDS011;48171;51.550;5.434;2023-04-01T12:41:53;21.13;;;10.57;;
61017;SDS011;48171;51.550;5.434;2023-04-01T12:44:26;23.33;;;10.82;;
61017;SDS011;48171;51.550;5.434;2023-04-01T12:55:30;24.25;;;11.52;;
61017;SDS011;48171;51.550;5.434;2023-04-01T12:58:31;21.70;;;11.75;;
61017;SDS011;48171;51.550;5.434;2023-04-01T13:01:19;25.70;;;11.77;;
61017;SDS011;48171;51.550;5.434;2023-04-01T13:09:38;22.83;;;12.27;;
61017;SDS011;48171;51.550;5.434;2023-04-01T13:20:36;23.58;;;11.43;;
61017;SDS011;48171;51.550;5.434;2023-04-01T13:28:30;18.88;;;10.18;;
61017;SDS011;48171;51.550;5.434;2023-04-01T13:31:19;20.60;;;9.82;;
61017;SDS011;48171;51.550;5.434;2023-04-01T13:47:58;17.70;;;8.90;;
61017;SDS011;48171;51.550;5.434;2023-04-01T13:58:38;18.70;;;10.07;;
61017;SDS011;48171;51.550;5.434;2023-04-01T14:15:32;20.27;;;10.70;;
61017;SDS011;48171;51.550;5.434;2023-04-01T14:18:16;20.10;;;11.07;;
61017;SDS011;48171;51.550;5.434;2023-04-01T14:20:48;21.17;;;11.07;;
61017;SDS011;48171;51.550;5.434;2023-04-01T14:31:44;18.48;;;10.23;;
61017;SDS011;48171;51.550;5.434;2023-04-01T14:34:36;20.10;;;10.75;;
61017;SDS011;48171;51.550;5.434;2023-04-01T14:37:25;20.33;;;10.30;;
61017;SDS011;48171;51.550;5.434;2023-04-01T14:40:28;24.25;;;10.88;;
61017;SDS011;48171;51.550;5.434;2023-04-01T14:43:11;21.88;;;11.40;;
61017;SDS011;48171;51.550;5.434;2023-04-01T14:48:31;21.48;;;10.48;;
61017;SDS011;48171;51.550;5.434;2023-04-01T14:51:10;19.50;;;10.30;;
61017;SDS011;48171;51.550;5.434;2023-04-01T14:53:43;21.45;;;9.90;;
61017;SDS011;48171;51.550;5.434;2023-04-01T14:56:34;20.63;;;10.18;;
61017;SDS011;48171;51.550;5.434;2023-04-01T14:59:07;23.02;;;11.88;;
61017;SDS011;48171;51.550;5.434;2023-04-01T15:04:53;22.40;;;11.00;;
61017;SDS011;48171;51.550;5.434;2023-04-01T15:07:11;25.58;;;10.85;;
61017;SDS011;48171;51.550;5.434;2023-04-01T15:10:32;20.52;;;10.50;;
61017;SDS011;48171;51.550;5.434;2023-04-01T15:32:45;23.33;;;9.82;;
61017;SDS011;48171;51.550;5.434;2023-04-01T15:35:26;21.38;;;10.18;;
61017;SDS011;48171;51.550;5.434;2023-04-01T15:37:56;21.48;;;10.43;;
61017;SDS011;48171;51.550;5.434;2023-04-01T15:40:31;22.67;;;11.13;;
61017;SDS011;48171;51.550;5.434;2023-04-01T15:43:15;23.55;;;10.98;;
61017;SDS011;48171;51.550;5.434;2023-04-01T15:51:43;21.55;;;10.18;;
61017;SDS011;48171;51.550;5.434;2023-04-01T16:00:31;19.48;;;10.35;;
61017;SDS011;48171;51.550;5.434;2023-04-01T16:08:54;18.77;;;9.10;;
61017;SDS011;48171;51.550;5.434;2023-04-01T16:11:27;19.92;;;9.73;;
61017;SDS011;48171;51.550;5.434;2023-04-01T16:14:03;18.52;;;9.88;;
61017;SDS011;48171;51.550;5.434;2023-04-01T16:22:13;18.30;;;8.95;;
61017;SDS011;48171;51.550;5.434;2023-04-01T16:27:54;18.67;;;8.88;;
61017;SDS011;48171;51.550;5.434;2023-04-01T16:30:35;25.50;;;10.77;;
61017;SDS011;48171;51.550;5.434;2023-04-01T16:33:50;18.75;;;9.02;;
61017;SDS011;48171;51.550;5.434;2023-04-01T16:36:03;17.27;;;8.10;;
61017;SDS011;48171;51.550;5.434;2023-04-01T16:38:43;19.88;;;9.85;;
61017;SDS011;48171;51.550;5.434;2023-04-01T16:41:17;19.40;;;9.73;;
61017;SDS011;48171;51.550;5.434;2023-04-01T16:43:47;14.90;;;7.75;;
61017;SDS011;48171;51.550;5.434;2023-04-01T16:54:59;16.52;;;8.15;;
61017;SDS011;48171;51.550;5.434;2023-04-01T17:05:37;14.13;;;6.45;;
61017;SDS011;48171;51.550;5.434;2023-04-01T17:08:17;13.60;;;6.28;;
61017;SDS011;48171;51.550;5.434;2023-04-01T17:18:35;11.23;;;5.75;;
61017;SDS011;48171;51.550;5.434;2023-04-01T17:21:10;11.07;;;5.68;;
61017;SDS011;48171;51.550;5.434;2023-04-01T17:23:51;13.18;;;6.00;;
61017;SDS011;48171;51.550;5.434;2023-04-01T17:35:09;14.07;;;6.35;;
61017;SDS011;48171;51.550;5.434;2023-04-01T17:37:54;10.93;;;5.88;;
61017;SDS011;48171;51.550;5.434;2023-04-01T17:43:46;11.05;;;5.22;;
61017;SDS011;48171;51.550;5.434;2023-04-01T17:52:33;12.38;;;5.60;;
61017;SDS011;48171;51.550;5.434;2023-04-01T17:58:12;13.35;;;6.55;;
61017;SDS011;48171;51.550;5.434;2023-04-01T18:08:57;13.75;;;6.30;;
61017;SDS011;48171;51.550;5.434;2023-04-01T18:17:08;14.82;;;6.72;;
61017;SDS011;48171;51.550;5.434;2023-04-01T18:22:19;13.40;;;6.20;;
61017;SDS011;48171;51.550;5.434;2023-04-01T18:27:43;14.10;;;6.20;;
61017;SDS011;48171;51.550;5.434;2023-04-01T18:32:52;11.85;;;6.25;;
61017;SDS011;48171;51.550;5.434;2023-04-01T18:40:41;10.55;;;5.00;;
61017;SDS011;48171;51.550;5.434;2023-04-01T18:43:30;9.10;;;4.72;;
61017;SDS011;48171;51.550;5.434;2023-04-01T18:46:05;7.53;;;4.10;;
61017;SDS011;48171;51.550;5.434;2023-04-01T18:51:41;14.48;;;5.57;;
61017;SDS011;48171;51.550;5.434;2023-04-01T18:57:00;9.07;;;4.97;;
61017;SDS011;48171;51.550;5.434;2023-04-01T19:05:08;10.73;;;4.82;;
61017;SDS011;48171;51.550;5.434;2023-04-01T19:08:20;10.20;;;4.85;;
61017;SDS011;48171;51.550;5.434;2023-04-01T19:19:18;12.15;;;6.07;;
61017;SDS011;48171;51.550;5.434;2023-04-01T19:24:36;13.88;;;7.10;;
61017;SDS011;48171;51.550;5.434;2023-04-01T19:27:18;13.48;;;7.07;;
61017;SDS011;48171;51.550;5.434;2023-04-01T19:38:29;13.63;;;6.47;;
61017;SDS011;48171;51.550;5.434;2023-04-01T19:43:57;12.35;;;6.40;;
61017;SDS011;48171;51.550;5.434;2023-04-01T19:47:04;15.07;;;6.78;;
61017;SDS011;48171;51.550;5.434;2023-04-01T19:50:09;14.90;;;6.90;;
61017;SDS011;48171;51.550;5.434;2023-04-01T19:52:32;12.77;;;5.88;;
61017;SDS011;48171;51.550;5.434;2023-04-01T20:00:52;12.75;;;6.25;;
61017;SDS011;48171;51.550;5.434;2023-04-01T20:03:29;12.50;;;5.97;;
61017;SDS011;48171;51.550;5.434;2023-04-01T20:06:04;11.27;;;5.85;;
61017;SDS011;48171;51.550;5.434;2023-04-01T20:08:54;13.45;;;6.43;;
61017;SDS011;48171;51.550;5.434;2023-04-01T20:14:40;19.25;;;8.10;;
61017;SDS011;48171;51.550;5.434;2023-04-01T20:17:26;16.67;;;7.97;;
61017;SDS011;48171;51.550;5.434;2023-04-01T20:30:51;17.40;;;8.73;;
61017;SDS011;48171;51.550;5.434;2023-04-01T20:36:26;16.83;;;7.32;;
61017;SDS011;48171;51.550;5.434;2023-04-01T20:50:24;17.52;;;8.77;;
61017;SDS011;48171;51.550;5.434;2023-04-01T20:53:05;16.38;;;8.23;;
61017;SDS011;48171;51.550;5.434;2023-04-01T21:01:05;13.93;;;6.95;;
61017;SDS011;48171;51.550;5.434;2023-04-01T21:09:41;15.57;;;7.03;;
61017;SDS011;48171;51.550;5.434;2023-04-01T21:12:30;14.02;;;6.93;;
61017;SDS011;48171;51.550;5.434;2023-04-01T21:15:21;15.20;;;7.47;;
61017;SDS011;48171;51.550;5.434;2023-04-01T21:23:16;13.52;;;6.53;;
61017;SDS011;48171;51.550;5.434;2023-04-01T21:28:30;14.32;;;6.57;;
61017;SDS011;48171;51.550;5.434;2023-04-01T21:36:52;16.90;;;8.25;;
61017;SDS011;48171;51.550;5.434;2023-04-01T21:47:36;21.23;;;8.50;;
61017;SDS011;48171;51.550;5.434;2023-04-01T22:02:33;14.07;;;6.47;;
61017;SDS011;48171;51.550;5.434;2023-04-01T22:07:21;19.23;;;8.32;;
61017;SDS011;48171;51.550;5.434;2023-04-01T22:09:52;17.67;;;7.38;;
61017;SDS011;48171;51.550;5.434;2023-04-01T22:21:42;21.58;;;9.68;;
61017;SDS011;48171;51.550;5.434;2023-04-01T22:23:47;19.98;;;9.05;;
61017;SDS011;48171;51.550;5.434;2023-04-01T22:32:40;24.70;;;10.50;;
61017;SDS011;48171;51.550;5.434;2023-04-01T22:35:11;18.85;;;9.23;;
61017;SDS011;48171;51.550;5.434;2023-04-01T22:40:25;23.67;;;10.63;;
61017;SDS011;48171;51.550;5.434;2023-04-01T22:43:01;20.85;;;9.73;;
61017;SDS011;48171;51.550;5.434;2023-04-01T22:51:17;21.30;;;9.60;;
61017;SDS011;48171;51.550;5.434;2023-04-01T22:56:37;22.23;;;9.57;;
61017;SDS011;48171;51.550;5.434;2023-04-01T23:01:44;17.45;;;8.00;;
61017;SDS011;48171;51.550;5.434;2023-04-01T23:04:18;20.67;;;10.00;;
61017;SDS011;48171;51.550;5.434;2023-04-01T23:06:50;19.50;;;10.32;;
61017;SDS011;48171;51.550;5.434;2023-04-01T23:09:27;19.55;;;9.25;;
61017;SDS011;48171;51.550;5.434;2023-04-01T23:12:10;20.43;;;9.43;;
61017;SDS011;48171;51.550;5.434;2023-04-01T23:15:13;19.73;;;9.53;;
61017;SDS011;48171;51.550;5.434;2023-04-01T23:20:17;15.30;;;8.18;;
61017;SDS011;48171;51.550;5.434;2023-04-01T23:28:23;17.58;;;8.20;;
61017;SDS011;48171;51.550;5.434;2023-04-01T23:30:54;17.67;;;7.93;;
61017;SDS011;48171;51.550;5.434;2023-04-01T23:35:49;18.00;;;8.18;;
61017;SDS011;48171;51.550;5.434;2023-04-01T23:38:30;16.92;;;8.15;;
61017;SDS011;48171;51.550;5.434;2023-04-01T23:40:57;16.45;;;8.20;;
61017;SDS011;48171;51.550;5.434;2023-04-01T23:43:33;16.73;;;8.52;;
61017;SDS011;48171;51.550;5.434;2023-04-01T23:46:02;17.15;;;8.52;;
61017;SDS011;48171;51.550;5.434;2023-04-01T23:48:32;17.13;;;8.43;;
61017;SDS011;48171;51.550;5.434;2023-04-01T23:51:01;14.02;;;7.03;;
61017;SDS011;48171;51.550;5.434;2023-04-01T23:53:32;17.20;;;8.15;;
61017;SDS011;48171;51.550;5.434;2023-04-01T23:55:58;15.77;;;7.82;;
61017;SDS011;48171;51.550;5.434;2023-04-01T23:58:25;16.42;;;7.72;;
